createdAt,value
2018-09-03T00:01:10.604Z,99.90
2018-09-03T00:03:39.538Z,99.90
2018-09-03T00:06:08.478Z,99.90
2018-09-03T00:08:37.382Z,99.90
2018-09-03T00:11:06.370Z,99.90
2018-09-03T00:13:35.322Z,99.90
2018-09-03T00:16:04.257Z,99.90
2018-09-03T00:18:33.374Z,99.90
2018-09-03T00:21:02.298Z,99.90
2018-09-03T00:23:31.246Z,99.90
2018-09-03T00:26:00.420Z,99.90
2018-09-03T00:28:29.367Z,99.90
2018-09-03T00:31:03.602Z,99.90
2018-09-03T00:35:43.445Z,99.90
2018-09-03T00:38:17.638Z,99.90
2018-09-03T00:40:52.034Z,99.90
2018-09-03T00:43:26.082Z,99.90
2018-09-03T00:46:00.311Z,99.90
2018-09-03T00:48:29.205Z,99.90
2018-09-03T00:50:58.162Z,99.90
2018-09-03T00:53:27.085Z,99.90
2018-09-03T00:55:56.104Z,99.90
2018-09-03T00:58:25.150Z,99.90
2018-09-03T01:00:54.095Z,99.90
2018-09-03T01:03:23.007Z,99.90
2018-09-03T01:05:52.101Z,99.90
2018-09-03T01:08:21.398Z,99.90
2018-09-03T01:10:50.317Z,99.90
2018-09-03T01:13:19.281Z,99.90
2018-09-03T01:15:48.678Z,99.90
2018-09-03T01:18:18.081Z,99.90
2018-09-03T01:20:48.326Z,99.90
2018-09-03T01:23:17.540Z,99.90
2018-09-03T01:25:46.606Z,99.90
2018-09-03T01:28:15.604Z,99.90
2018-09-03T01:30:44.522Z,99.90
2018-09-03T01:33:13.555Z,99.90
2018-09-03T01:35:42.458Z,99.90
2018-09-03T01:38:11.440Z,99.90
2018-09-03T01:40:40.392Z,99.90
2018-09-03T01:43:09.310Z,99.90
2018-09-03T01:45:38.278Z,99.90
2018-09-03T01:48:07.252Z,99.90
2018-09-03T01:50:36.178Z,99.90
2018-09-03T01:53:05.182Z,99.90
2018-09-03T01:55:34.109Z,99.90
2018-09-03T01:58:03.051Z,99.90
2018-09-03T02:00:32.043Z,99.90
2018-09-03T02:03:01.203Z,99.90
2018-09-03T02:05:30.176Z,99.90
2018-09-03T02:07:59.222Z,99.90
2018-09-03T02:10:28.136Z,99.90
2018-09-03T02:12:57.075Z,99.90
2018-09-03T02:15:25.989Z,99.90
2018-09-03T02:17:54.977Z,99.90
2018-09-03T02:20:24.223Z,99.90
2018-09-03T02:22:53.677Z,99.90
2018-09-03T02:25:22.579Z,99.90
2018-09-03T02:27:51.504Z,99.90
2018-09-03T02:30:20.968Z,99.90
2018-09-03T02:32:49.967Z,99.90
2018-09-03T02:35:18.915Z,99.90
2018-09-03T02:37:47.968Z,99.90
2018-09-03T02:40:16.939Z,99.90
2018-09-03T02:42:45.849Z,99.90
2018-09-03T02:45:15.210Z,99.90
2018-09-03T02:47:44.110Z,99.90
2018-09-03T02:50:13.052Z,99.90
2018-09-03T02:52:42.824Z,99.90
2018-09-03T02:55:11.815Z,99.90
2018-09-03T02:57:40.859Z,99.90
2018-09-03T03:00:09.898Z,99.90
2018-09-03T03:02:38.866Z,99.90
2018-09-03T03:05:07.823Z,99.90
2018-09-03T03:07:36.797Z,99.90
2018-09-03T03:10:06.035Z,99.90
2018-09-03T03:12:35.012Z,99.90
2018-09-03T03:15:03.929Z,99.90
2018-09-03T03:17:32.847Z,99.90
2018-09-03T03:20:01.783Z,99.90
2018-09-03T03:22:31.092Z,99.90
2018-09-03T03:25:00.180Z,99.90
2018-09-03T03:27:29.092Z,99.90
2018-09-03T03:29:58.268Z,99.90
2018-09-03T03:32:27.407Z,99.90
2018-09-03T03:34:56.355Z,99.90
2018-09-03T03:37:25.269Z,99.90
2018-09-03T03:39:54.203Z,99.90
2018-09-03T03:42:23.101Z,99.90
2018-09-03T03:44:52.041Z,99.90
2018-09-03T03:47:21.015Z,99.90
2018-09-03T03:49:50.024Z,99.90
2018-09-03T03:52:18.951Z,99.90
2018-09-03T03:54:47.863Z,99.90
2018-09-03T03:57:16.777Z,99.90
2018-09-03T03:59:45.737Z,99.90
2018-09-03T04:02:14.641Z,99.90
2018-09-03T04:04:43.588Z,99.90
2018-09-03T04:07:12.534Z,99.90
2018-09-03T04:09:41.456Z,99.90
2018-09-03T04:12:10.453Z,99.90
2018-09-03T04:14:39.363Z,99.90
2018-09-03T04:17:08.528Z,99.90
2018-09-03T04:19:37.442Z,99.90
2018-09-03T04:22:06.400Z,99.90
2018-09-03T04:24:35.290Z,99.90
2018-09-03T04:27:04.440Z,99.90
2018-09-03T04:29:33.637Z,99.90
2018-09-03T04:32:02.609Z,99.90
2018-09-03T04:34:31.618Z,99.90
2018-09-03T04:37:00.528Z,99.90
2018-09-03T04:39:29.449Z,99.90
2018-09-03T04:41:58.368Z,99.90
2018-09-03T04:44:27.403Z,99.90
2018-09-03T04:46:56.569Z,99.90
2018-09-03T04:49:25.511Z,99.90
2018-09-03T04:51:54.430Z,99.90
2018-09-03T04:54:23.363Z,99.90
2018-09-03T04:56:52.251Z,99.90
2018-09-03T04:59:21.188Z,99.90
2018-09-03T05:01:50.081Z,99.90
2018-09-03T05:04:19.442Z,99.90
2018-09-03T05:06:48.357Z,99.90
2018-09-03T05:09:17.305Z,99.90
2018-09-03T05:11:46.287Z,99.90
2018-09-03T05:14:15.389Z,99.90
2018-09-03T05:16:44.356Z,99.90
2018-09-03T05:19:13.247Z,99.90
2018-09-03T05:21:42.158Z,99.90
2018-09-03T05:24:11.131Z,99.90
2018-09-03T05:26:42.054Z,99.90
2018-09-03T05:29:11.044Z,99.90
2018-09-03T05:31:40.043Z,98.10
2018-09-03T05:34:08.978Z,97.20
2018-09-03T05:36:37.939Z,94.90
2018-09-03T05:39:09.699Z,90.80
2018-09-03T05:41:38.715Z,86.50
2018-09-03T05:44:08.172Z,81.40
2018-09-03T05:46:37.981Z,73.30
2018-09-03T05:49:06.923Z,68.40
2018-09-03T05:51:35.819Z,65.40
2018-09-03T05:54:04.760Z,65.80
2018-09-03T05:56:34.663Z,63.40
2018-09-03T05:59:03.799Z,61.40
2018-09-03T06:01:33.000Z,63.10
2018-09-03T06:04:02.016Z,57.80
2018-09-03T06:06:30.930Z,56.90
2018-09-03T06:08:59.873Z,52.50
2018-09-03T06:11:28.779Z,51.90
2018-09-03T06:13:58.304Z,48.90
2018-09-03T06:16:27.337Z,49.40
2018-09-03T06:18:56.250Z,46.70
2018-09-03T06:21:25.187Z,42.20
2018-09-03T06:23:54.147Z,40.30
2018-09-03T06:26:23.166Z,38.40
2018-09-03T06:28:52.111Z,36.30
2018-09-03T06:31:21.155Z,35.20
2018-09-03T06:33:50.214Z,33.30
2018-09-03T06:36:19.147Z,32.10
2018-09-03T06:38:48.167Z,29.00
2018-09-03T06:41:17.172Z,28.80
2018-09-03T06:43:46.194Z,28.20
2018-09-03T06:46:15.201Z,28.70
2018-09-03T06:48:44.140Z,30.40
2018-09-03T06:51:13.674Z,29.80
2018-09-03T06:53:42.721Z,28.20
2018-09-03T06:56:11.647Z,28.00
2018-09-03T06:58:40.589Z,29.70
2018-09-03T07:01:09.531Z,29.30
2018-09-03T07:03:38.451Z,30.30
2018-09-03T07:06:07.432Z,29.60
2018-09-03T07:08:36.967Z,28.40
2018-09-03T07:11:06.501Z,27.50
2018-09-03T07:13:35.440Z,26.80
2018-09-03T07:16:04.385Z,26.30
2018-09-03T07:18:33.378Z,27.10
2018-09-03T07:21:02.299Z,27.30
2018-09-03T07:23:31.258Z,25.80
2018-09-03T07:26:00.235Z,24.30
2018-09-03T07:28:29.170Z,23.10
2018-09-03T07:30:58.585Z,21.70
2018-09-03T07:33:27.521Z,21.70
2018-09-03T07:35:56.597Z,21.60
2018-09-03T07:38:26.651Z,20.50
2018-09-03T07:40:55.602Z,21.10
2018-09-03T07:43:24.587Z,23.20
2018-09-03T07:45:53.576Z,23.80
2018-09-03T07:48:22.726Z,23.90
2018-09-03T07:50:52.259Z,23.30
2018-09-03T07:53:21.225Z,22.60
2018-09-03T07:55:50.215Z,21.60
2018-09-03T07:58:19.219Z,20.90
2018-09-03T08:00:48.166Z,19.20
2018-09-03T08:03:17.139Z,18.00
2018-09-03T08:05:46.075Z,18.00
2018-09-03T08:08:15.060Z,18.00
2018-09-03T08:10:44.524Z,18.30
2018-09-03T08:13:18.800Z,20.00
2018-09-03T08:15:48.024Z,21.40
2018-09-03T08:18:16.989Z,21.60
2018-09-03T08:20:45.926Z,22.80
2018-09-03T08:23:14.918Z,21.10
2018-09-03T08:25:43.807Z,20.90
2018-09-03T08:28:12.817Z,19.70
2018-09-03T08:30:41.714Z,18.70
2018-09-03T08:33:10.727Z,18.10
2018-09-03T08:35:39.719Z,19.00
2018-09-03T08:38:08.667Z,19.50
2018-09-03T08:40:37.621Z,20.20
2018-09-03T08:43:06.772Z,19.80
2018-09-03T08:45:36.277Z,19.00
2018-09-03T08:48:05.344Z,20.30
2018-09-03T08:50:34.307Z,19.70
2018-09-03T08:53:03.283Z,20.10
2018-09-03T08:55:32.291Z,20.20
2018-09-03T08:58:01.251Z,19.70
2018-09-03T09:00:30.230Z,18.00
2018-09-03T09:02:59.232Z,16.60
2018-09-03T09:05:28.177Z,17.60
2018-09-03T09:07:57.150Z,18.20
2018-09-03T09:10:26.068Z,20.00
2018-09-03T09:12:55.077Z,19.70
2018-09-03T09:15:24.051Z,20.70
2018-09-03T09:17:53.583Z,21.60
2018-09-03T09:20:22.533Z,24.50
2018-09-03T09:22:51.590Z,25.90
2018-09-03T09:25:20.546Z,27.50
2018-09-03T09:27:49.859Z,30.10
2018-09-03T09:30:18.838Z,30.00
2018-09-03T09:32:47.791Z,30.70
2018-09-03T09:35:16.766Z,30.00
2018-09-03T09:37:45.705Z,29.80
2018-09-03T09:40:15.441Z,30.00
2018-09-03T09:42:44.347Z,29.80
2018-09-03T09:45:13.287Z,31.40
2018-09-03T09:47:42.214Z,33.30
2018-09-03T09:50:11.186Z,34.60
2018-09-03T09:52:40.084Z,35.20
2018-09-03T09:55:09.020Z,33.80
2018-09-03T09:57:37.895Z,31.80
2018-09-03T10:00:08.130Z,33.30
2018-09-03T10:02:37.060Z,33.50
2018-09-03T10:05:06.847Z,34.90
2018-09-03T10:07:35.778Z,33.30
2018-09-03T10:10:04.764Z,34.50
2018-09-03T10:12:34.459Z,32.60
2018-09-03T10:15:03.468Z,33.20
2018-09-03T10:17:32.450Z,33.30
2018-09-03T10:20:01.470Z,33.00
2018-09-03T10:22:30.418Z,33.50
2018-09-03T10:24:59.327Z,33.80
2018-09-03T10:27:29.286Z,34.50
2018-09-03T10:29:58.188Z,32.80
2018-09-03T10:32:28.194Z,34.00
2018-09-03T10:34:57.129Z,33.30
2018-09-03T10:37:26.555Z,33.20
2018-09-03T10:39:55.504Z,33.60
2018-09-03T10:42:26.526Z,33.80
2018-09-03T10:44:56.120Z,32.60
2018-09-03T10:47:25.241Z,32.70
2018-09-03T10:49:54.095Z,32.80
2018-09-03T10:52:23.580Z,32.20
2018-09-03T10:54:52.495Z,32.90
2018-09-03T10:57:21.436Z,34.90
2018-09-03T10:59:50.358Z,33.70
2018-09-03T11:02:19.296Z,31.40
2018-09-03T11:04:48.255Z,32.60
2018-09-03T11:07:17.242Z,32.90
2018-09-03T11:09:46.196Z,33.00
2018-09-03T11:12:16.859Z,31.40
2018-09-03T11:14:45.800Z,31.20
2018-09-03T11:17:14.782Z,32.80
2018-09-03T11:19:47.290Z,33.00
2018-09-03T11:22:16.417Z,32.50
2018-09-03T11:24:45.780Z,32.50
2018-09-03T11:27:14.735Z,31.60
2018-09-03T11:29:43.644Z,31.60
2018-09-03T11:32:12.602Z,31.10
2018-09-03T11:34:41.475Z,31.00
2018-09-03T11:37:10.390Z,30.10
2018-09-03T11:39:39.303Z,31.20
2018-09-03T11:42:08.279Z,30.10
2018-09-03T11:44:37.154Z,31.00
2018-09-03T11:47:06.233Z,30.40
2018-09-03T11:49:35.178Z,31.80
2018-09-03T11:52:04.082Z,30.00
2018-09-03T11:54:33.055Z,30.50
2018-09-03T11:57:02.027Z,30.90
2018-09-03T11:59:30.973Z,29.70
2018-09-03T12:01:59.946Z,31.20
2018-09-03T12:04:28.891Z,31.10
2018-09-03T12:06:58.047Z,29.60
2018-09-03T12:09:27.018Z,30.70
2018-09-03T12:11:55.926Z,31.60
2018-09-03T12:14:35.314Z,31.60
2018-09-03T12:17:04.295Z,30.60
2018-09-03T12:19:33.278Z,30.30
2018-09-03T12:22:02.196Z,29.20
2018-09-03T12:24:31.132Z,30.30
2018-09-03T12:27:00.147Z,31.50
2018-09-03T12:29:29.005Z,31.50
2018-09-03T12:31:57.925Z,30.00
2018-09-03T12:34:26.924Z,31.10
2018-09-03T12:36:55.959Z,31.60
2018-09-03T12:39:24.865Z,30.50
2018-09-03T12:41:53.879Z,29.10
2018-09-03T12:44:22.788Z,29.70
2018-09-03T12:46:51.767Z,29.90
2018-09-03T12:49:21.222Z,31.30
2018-09-03T12:51:50.184Z,31.60
2018-09-03T12:54:19.091Z,31.00
2018-09-03T12:56:48.036Z,30.60
2018-09-03T12:59:17.147Z,31.40
2018-09-03T13:01:46.069Z,30.20
2018-09-03T13:04:15.021Z,31.10
2018-09-03T13:06:43.938Z,31.30
2018-09-03T13:09:12.875Z,30.20
2018-09-03T13:11:41.747Z,30.80
2018-09-03T13:14:10.701Z,30.40
2018-09-03T13:16:39.694Z,31.10
2018-09-03T13:19:08.618Z,31.40
2018-09-03T13:21:37.554Z,31.40
2018-09-03T13:24:06.626Z,31.10
2018-09-03T13:26:35.603Z,31.80
2018-09-03T13:29:04.520Z,31.60
2018-09-03T13:31:33.475Z,30.50
2018-09-03T13:34:02.439Z,30.70
2018-09-03T13:36:31.356Z,29.00
2018-09-03T13:39:00.271Z,29.30
2018-09-03T13:41:29.256Z,29.50
2018-09-03T13:43:58.168Z,30.70
2018-09-03T13:46:27.116Z,31.00
2018-09-03T13:48:56.086Z,31.60
2018-09-03T13:51:25.027Z,31.60
2018-09-03T13:53:54.390Z,31.60
2018-09-03T13:56:23.288Z,32.20
2018-09-03T13:58:52.273Z,32.20
2018-09-03T14:01:21.196Z,32.90
2018-09-03T14:03:50.106Z,33.40
2018-09-03T14:06:19.099Z,32.80
2018-09-03T14:08:48.026Z,33.30
2018-09-03T14:11:16.984Z,33.40
2018-09-03T14:13:45.979Z,31.80
2018-09-03T14:16:14.890Z,31.60
2018-09-03T14:18:43.837Z,31.50
2018-09-03T14:21:12.808Z,31.70
2018-09-03T14:23:41.752Z,31.20
2018-09-03T14:26:10.755Z,31.10
2018-09-03T14:28:39.741Z,31.80
2018-09-03T14:31:08.699Z,31.80
2018-09-03T14:33:37.587Z,31.60
2018-09-03T14:36:06.519Z,31.50
2018-09-03T14:38:36.224Z,32.50
2018-09-03T14:41:05.358Z,32.90
2018-09-03T14:43:34.728Z,33.30
2018-09-03T14:46:03.636Z,33.70
2018-09-03T14:48:32.561Z,33.10
2018-09-03T14:51:01.747Z,33.60
2018-09-03T14:53:30.656Z,31.70
2018-09-03T14:56:14.230Z,31.80
2018-09-03T14:58:43.372Z,31.90
2018-09-03T15:01:12.270Z,32.00
2018-09-03T15:03:41.208Z,31.90
2018-09-03T15:06:10.097Z,31.50
2018-09-03T15:08:39.001Z,31.90
2018-09-03T15:11:08.159Z,31.40
2018-09-03T15:13:37.171Z,31.20
2018-09-03T15:16:06.614Z,31.20
2018-09-03T15:18:35.642Z,31.70
2018-09-03T15:21:04.725Z,32.00
2018-09-03T15:23:33.683Z,33.10
2018-09-03T15:26:02.624Z,32.70
2018-09-03T15:28:31.630Z,32.80
2018-09-03T15:31:00.554Z,32.80
2018-09-03T15:33:30.058Z,32.30
2018-09-03T15:35:59.019Z,31.80
2018-09-03T15:38:27.940Z,32.80
2018-09-03T15:40:56.913Z,33.10
2018-09-03T15:43:25.844Z,32.30
2018-09-03T15:45:54.846Z,32.70
2018-09-03T15:48:23.829Z,32.90
2018-09-03T15:50:52.854Z,33.90
2018-09-03T15:53:22.161Z,34.20
2018-09-03T15:55:51.109Z,34.40
2018-09-03T15:58:20.004Z,34.90
2018-09-03T16:00:49.848Z,34.30
2018-09-03T16:03:19.239Z,34.50
2018-09-03T16:05:48.168Z,33.50
2018-09-03T16:08:17.281Z,34.70
2018-09-03T16:10:46.235Z,35.20
2018-09-03T16:13:15.201Z,35.10
2018-09-03T16:15:44.225Z,34.50
2018-09-03T16:18:13.285Z,35.10
2018-09-03T16:20:42.256Z,34.50
2018-09-03T16:23:11.711Z,35.00
2018-09-03T16:25:40.699Z,35.00
2018-09-03T16:28:15.341Z,36.10
2018-09-03T16:30:44.626Z,35.70
2018-09-03T16:33:13.615Z,34.90
2018-09-03T16:35:42.559Z,34.70
2018-09-03T16:38:11.468Z,35.20
2018-09-03T16:40:41.632Z,35.90
2018-09-03T16:43:10.583Z,35.00
2018-09-03T16:45:39.572Z,35.80
2018-09-03T16:48:08.546Z,36.20
2018-09-03T16:50:37.560Z,35.90
2018-09-03T16:53:06.539Z,36.20
2018-09-03T16:55:35.498Z,36.60
2018-09-03T16:58:04.444Z,36.50
2018-09-03T17:00:33.397Z,36.70
2018-09-03T17:03:02.358Z,36.90
2018-09-03T17:05:31.381Z,37.90
2018-09-03T17:08:00.404Z,39.00
2018-09-03T17:10:29.357Z,38.10
2018-09-03T17:12:58.599Z,38.50
2018-09-03T17:15:27.543Z,38.90
2018-09-03T17:17:56.575Z,39.90
2018-09-03T17:20:25.545Z,39.40
2018-09-03T17:22:54.467Z,39.90
2018-09-03T17:25:23.428Z,40.10
2018-09-03T17:27:52.504Z,40.60
2018-09-03T17:30:21.422Z,41.10
2018-09-03T17:32:50.390Z,41.70
2018-09-03T17:35:19.302Z,41.40
2018-09-03T17:37:48.335Z,42.00
2018-09-03T17:40:17.675Z,42.30
2018-09-03T17:42:46.657Z,42.70
2018-09-03T17:45:15.591Z,42.60
2018-09-03T17:47:44.586Z,42.60
2018-09-03T17:50:13.572Z,42.80
2018-09-03T17:52:42.540Z,42.90
2018-09-03T17:55:12.093Z,43.10
2018-09-03T17:57:41.003Z,43.40
2018-09-03T18:00:10.012Z,43.50
2018-09-03T18:02:38.983Z,43.80
2018-09-03T18:05:07.943Z,44.30
2018-09-03T18:07:36.977Z,45.10
2018-09-03T18:10:05.963Z,45.20
2018-09-03T18:12:35.040Z,45.30
2018-09-03T18:15:04.060Z,45.60
2018-09-03T18:17:33.262Z,45.70
2018-09-03T18:20:02.156Z,45.80
2018-09-03T18:22:31.090Z,46.00
2018-09-03T18:25:00.006Z,46.50
2018-09-03T18:27:28.950Z,46.60
2018-09-03T18:29:57.835Z,46.60
2018-09-03T18:32:26.767Z,46.90
2018-09-03T18:34:55.656Z,47.10
2018-09-03T18:37:24.578Z,47.50
2018-09-03T18:39:53.645Z,47.80
2018-09-03T18:42:22.754Z,48.70
2018-09-03T18:44:51.721Z,48.60
2018-09-03T18:47:20.753Z,49.50
2018-09-03T18:49:49.747Z,49.80
2018-09-03T18:52:18.828Z,49.60
2018-09-03T18:54:48.129Z,50.10
2018-09-03T18:57:17.135Z,50.40
2018-09-03T18:59:46.103Z,50.50
2018-09-03T19:02:15.057Z,50.50
2018-09-03T19:04:44.273Z,51.30
2018-09-03T19:07:13.443Z,51.30
2018-09-03T19:09:42.484Z,51.10
2018-09-03T19:12:11.493Z,51.40
2018-09-03T19:14:40.585Z,51.70
2018-09-03T19:17:09.539Z,51.30
2018-09-03T19:19:39.524Z,51.60
2018-09-03T19:22:08.960Z,53.00
2018-09-03T19:24:37.873Z,52.70
2018-09-03T19:27:07.813Z,52.70
2018-09-03T19:29:36.738Z,53.50
2018-09-03T19:32:05.700Z,53.70
2018-09-03T19:34:34.601Z,55.00
2018-09-03T19:37:03.650Z,55.80
2018-09-03T19:39:32.580Z,56.00
2018-09-03T19:42:01.534Z,57.20
2018-09-03T19:44:30.425Z,58.50
2018-09-03T19:46:59.772Z,58.60
2018-09-03T19:49:28.693Z,60.10
2018-09-03T19:51:57.683Z,59.10
2018-09-03T19:54:27.077Z,59.70
2018-09-03T19:56:56.084Z,60.30
2018-09-03T19:59:25.093Z,60.90
2018-09-03T20:01:54.032Z,61.00
2018-09-03T20:04:22.973Z,61.80
2018-09-03T20:06:52.210Z,61.30
2018-09-03T20:09:23.184Z,62.40
2018-09-03T20:11:52.232Z,62.30
2018-09-03T20:14:21.199Z,62.60
2018-09-03T20:16:50.219Z,62.90
2018-09-03T20:19:19.290Z,64.70
2018-09-03T20:21:48.244Z,63.80
2018-09-03T20:24:17.439Z,64.00
2018-09-03T20:26:47.611Z,64.50
2018-09-03T20:29:16.594Z,66.00
2018-09-03T20:31:45.521Z,66.00
2018-09-03T20:34:14.424Z,66.50
2018-09-03T20:36:43.476Z,66.30
2018-09-03T20:39:12.380Z,67.40
2018-09-03T20:41:41.304Z,66.60
2018-09-03T20:44:10.454Z,67.00
2018-09-03T20:46:39.518Z,66.20
2018-09-03T20:49:08.951Z,66.60
2018-09-03T20:51:38.118Z,67.90
2018-09-03T20:54:08.816Z,68.00
2018-09-03T20:56:41.917Z,67.90
2018-09-03T20:59:10.986Z,69.40
2018-09-03T21:01:39.984Z,69.50
2018-09-03T21:04:09.621Z,71.00
2018-09-03T21:06:38.545Z,71.10
2018-09-03T21:09:07.993Z,71.70
2018-09-03T21:11:36.959Z,72.80
2018-09-03T21:14:06.976Z,72.50
2018-09-03T21:16:36.509Z,71.80
2018-09-03T21:19:05.537Z,71.60
2018-09-03T21:21:34.449Z,72.00
2018-09-03T21:24:03.438Z,72.70
2018-09-03T21:26:32.436Z,73.70
2018-09-03T21:29:01.528Z,75.20
2018-09-03T21:31:30.429Z,76.60
2018-09-03T21:33:59.408Z,78.50
2018-09-03T21:36:29.077Z,78.80
2018-09-03T21:38:58.212Z,79.60
2018-09-03T21:41:27.488Z,79.60
2018-09-03T21:43:56.542Z,79.60
2018-09-03T21:46:25.458Z,79.50
2018-09-03T21:48:54.400Z,79.70
2018-09-03T21:51:23.942Z,80.80
2018-09-03T21:53:52.916Z,81.90
2018-09-03T21:56:21.868Z,82.90
2018-09-03T21:58:51.358Z,84.50
2018-09-03T22:01:20.350Z,84.70
2018-09-03T22:03:49.265Z,87.00
2018-09-03T22:06:18.238Z,88.80
2018-09-03T22:08:47.171Z,89.50
2018-09-03T22:11:16.103Z,90.20
2018-09-03T22:13:45.013Z,90.90
2018-09-03T22:16:13.898Z,90.80
2018-09-03T22:18:42.835Z,91.00
2018-09-03T22:21:11.731Z,91.80
2018-09-03T22:23:40.654Z,92.20
2018-09-03T22:26:09.550Z,92.60
2018-09-03T22:28:38.462Z,92.80
2018-09-03T22:31:07.462Z,93.50
2018-09-03T22:33:36.429Z,93.70
2018-09-03T22:36:05.417Z,94.20
2018-09-03T22:38:34.385Z,94.50
2018-09-03T22:41:03.294Z,94.70
2018-09-03T22:43:32.222Z,95.00
2018-09-03T22:46:01.844Z,95.00
2018-09-03T22:48:30.865Z,95.30
2018-09-03T22:50:59.794Z,95.60
2018-09-03T22:53:28.723Z,95.70
2018-09-03T22:55:57.683Z,96.10
2018-09-03T22:58:26.589Z,96.20
2018-09-03T23:00:55.540Z,96.80
2018-09-03T23:03:24.437Z,97.40
2018-09-03T23:05:53.448Z,97.50
2018-09-03T23:08:22.355Z,97.80
2018-09-03T23:10:51.286Z,97.60
2018-09-03T23:13:20.212Z,98.30
2018-09-03T23:15:53.020Z,98.40
2018-09-03T23:18:23.330Z,99.10
2018-09-03T23:20:52.399Z,99.10
2018-09-03T23:23:21.340Z,99.00
2018-09-03T23:25:50.333Z,99.90
2018-09-03T23:28:19.510Z,99.90
2018-09-03T23:30:48.421Z,99.90
2018-09-03T23:33:17.407Z,99.90
2018-09-03T23:35:46.312Z,99.90
2018-09-03T23:38:15.230Z,99.90
2018-09-03T23:40:58.639Z,99.90
2018-09-03T23:43:27.575Z,99.90
2018-09-03T23:45:56.466Z,99.90
2018-09-03T23:48:25.539Z,99.90
2018-09-03T23:50:54.967Z,99.90
2018-09-03T23:53:24.393Z,99.90
2018-09-03T23:55:53.371Z,99.90
2018-09-03T23:58:22.554Z,99.90
